KMGE

Dobbins Air Reserve Base Airport

Marietta, Georgia, USA
METAR KMGE 230456Z AUTO 00000KT 10SM CLR 09/06 A3023 RMK AO2 SLP237 T00920059 401880030 $
Observed Flight Rules
Oct-23 @ 04:56 UTC (23 minutes ago) Visual Flight Rules
Visibility Clouds
10 miles
  • Clear skies
Temperatures Readings
Current 9°C / 48°F
Dewpoint 6°C / 43°F
Humidity 82%
Altimeter 30.23" Hg
Pressure 1023.7 hPa
Elevation 326
METAR KMGE 230456Z AUTO 00000KT 10SM CLR 09/06 A3023 RMK AO2 SLP237 T00920059 401880030 $
Observed Flight Rules
Oct-23 @ 04:56 UTC
(23 minutes ago)
VFR
Clouds
  • Clear skies
Temperature Dewpoint
9°C / 48°F 6°C / 43°F
Humidity Altimeter Pressure
82% 30.23" Hg 1023.7 hPa